sensor_id;sensor_type;location;lat;lon;timestamp;P1;durP1;ratioP1;P2;durP2;ratioP2
39188;SDS011;24915;50.858;4.376;2023-04-15T00:01:20;5.82;;;4.22;;
39188;SDS011;24915;50.858;4.376;2023-04-15T00:03:47;6.65;;;3.72;;
39188;SDS011;24915;50.858;4.376;2023-04-15T00:06:14;10.38;;;4.40;;
39188;SDS011;24915;50.858;4.376;2023-04-15T00:08:40;9.15;;;4.05;;
39188;SDS011;24915;50.858;4.376;2023-04-15T00:11:06;5.03;;;4.18;;
39188;SDS011;24915;50.858;4.376;2023-04-15T00:13:32;5.15;;;4.32;;
39188;SDS011;24915;50.858;4.376;2023-04-15T00:16:00;12.55;;;4.70;;
39188;SDS011;24915;50.858;4.376;2023-04-15T00:18:26;7.53;;;4.63;;
39188;SDS011;24915;50.858;4.376;2023-04-15T00:20:53;7.72;;;4.57;;
39188;SDS011;24915;50.858;4.376;2023-04-15T00:23:19;8.02;;;4.35;;
39188;SDS011;24915;50.858;4.376;2023-04-15T00:25:45;8.52;;;4.95;;
39188;SDS011;24915;50.858;4.376;2023-04-15T00:28:11;11.30;;;5.10;;
39188;SDS011;24915;50.858;4.376;2023-04-15T00:30:36;5.47;;;4.63;;
39188;SDS011;24915;50.858;4.376;2023-04-15T00:33:03;6.05;;;4.20;;
39188;SDS011;24915;50.858;4.376;2023-04-15T00:35:28;6.80;;;4.75;;
39188;SDS011;24915;50.858;4.376;2023-04-15T00:37:57;4.65;;;3.65;;
39188;SDS011;24915;50.858;4.376;2023-04-15T00:40:23;6.65;;;4.15;;
39188;SDS011;24915;50.858;4.376;2023-04-15T00:42:49;8.82;;;3.50;;
39188;SDS011;24915;50.858;4.376;2023-04-15T00:45:14;5.32;;;3.90;;
39188;SDS011;24915;50.858;4.376;2023-04-15T00:47:40;6.50;;;3.78;;
39188;SDS011;24915;50.858;4.376;2023-04-15T00:50:08;6.07;;;3.92;;
39188;SDS011;24915;50.858;4.376;2023-04-15T00:52:34;5.40;;;3.90;;
39188;SDS011;24915;50.858;4.376;2023-04-15T00:55:00;3.97;;;3.58;;
39188;SDS011;24915;50.858;4.376;2023-04-15T00:57:27;3.97;;;3.55;;
39188;SDS011;24915;50.858;4.376;2023-04-15T00:59:53;3.65;;;3.30;;
39188;SDS011;24915;50.858;4.376;2023-04-15T01:02:20;5.97;;;3.58;;
39188;SDS011;24915;50.858;4.376;2023-04-15T01:04:46;5.80;;;3.97;;
39188;SDS011;24915;50.858;4.376;2023-04-15T01:07:12;8.77;;;5.10;;
39188;SDS011;24915;50.858;4.376;2023-04-15T01:09:38;11.07;;;5.70;;
39188;SDS011;24915;50.858;4.376;2023-04-15T01:12:04;7.63;;;5.15;;
39188;SDS011;24915;50.858;4.376;2023-04-15T01:14:31;8.25;;;5.30;;
39188;SDS011;24915;50.858;4.376;2023-04-15T01:16:58;7.22;;;5.18;;
39188;SDS011;24915;50.858;4.376;2023-04-15T01:19:23;9.57;;;5.32;;
39188;SDS011;24915;50.858;4.376;2023-04-15T01:21:50;8.18;;;5.30;;
39188;SDS011;24915;50.858;4.376;2023-04-15T01:24:16;9.38;;;4.80;;
39188;SDS011;24915;50.858;4.376;2023-04-15T01:26:43;7.50;;;4.82;;
39188;SDS011;24915;50.858;4.376;2023-04-15T01:29:10;8.52;;;4.82;;
39188;SDS011;24915;50.858;4.376;2023-04-15T01:31:36;7.65;;;4.70;;
39188;SDS011;24915;50.858;4.376;2023-04-15T01:34:02;7.80;;;4.90;;
39188;SDS011;24915;50.858;4.376;2023-04-15T01:36:27;7.60;;;4.90;;
39188;SDS011;24915;50.858;4.376;2023-04-15T01:38:54;11.98;;;4.28;;
39188;SDS011;24915;50.858;4.376;2023-04-15T01:41:24;6.10;;;4.13;;
39188;SDS011;24915;50.858;4.376;2023-04-15T01:43:50;5.40;;;3.63;;
39188;SDS011;24915;50.858;4.376;2023-04-15T01:46:16;5.45;;;3.28;;
39188;SDS011;24915;50.858;4.376;2023-04-15T01:48:42;5.63;;;3.20;;
39188;SDS011;24915;50.858;4.376;2023-04-15T01:51:08;5.07;;;3.15;;
39188;SDS011;24915;50.858;4.376;2023-04-15T01:53:33;3.85;;;2.97;;
39188;SDS011;24915;50.858;4.376;2023-04-15T01:55:59;5.63;;;3.00;;
39188;SDS011;24915;50.858;4.376;2023-04-15T01:58:25;5.32;;;3.97;;
39188;SDS011;24915;50.858;4.376;2023-04-15T02:00:51;5.47;;;4.35;;
39188;SDS011;24915;50.858;4.376;2023-04-15T02:03:17;5.45;;;3.83;;
39188;SDS011;24915;50.858;4.376;2023-04-15T02:05:43;5.10;;;3.65;;
39188;SDS011;24915;50.858;4.376;2023-04-15T02:08:09;3.65;;;3.10;;
39188;SDS011;24915;50.858;4.376;2023-04-15T02:10:34;4.93;;;3.10;;
39188;SDS011;24915;50.858;4.376;2023-04-15T02:13:00;4.45;;;3.33;;
39188;SDS011;24915;50.858;4.376;2023-04-15T02:15:26;4.55;;;3.72;;
39188;SDS011;24915;50.858;4.376;2023-04-15T02:17:52;5.68;;;4.30;;
39188;SDS011;24915;50.858;4.376;2023-04-15T02:20:19;8.45;;;5.20;;
39188;SDS011;24915;50.858;4.376;2023-04-15T02:22:45;7.38;;;4.85;;
39188;SDS011;24915;50.858;4.376;2023-04-15T02:25:12;15.82;;;6.13;;
39188;SDS011;24915;50.858;4.376;2023-04-15T02:27:38;15.30;;;7.05;;
39188;SDS011;24915;50.858;4.376;2023-04-15T02:30:04;13.90;;;7.18;;
39188;SDS011;24915;50.858;4.376;2023-04-15T02:32:31;17.77;;;8.52;;
39188;SDS011;24915;50.858;4.376;2023-04-15T02:35:01;21.15;;;10.02;;
39188;SDS011;24915;50.858;4.376;2023-04-15T02:37:28;17.45;;;9.05;;
39188;SDS011;24915;50.858;4.376;2023-04-15T02:39:55;22.65;;;10.07;;
39188;SDS011;24915;50.858;4.376;2023-04-15T02:42:21;25.15;;;11.05;;
39188;SDS011;24915;50.858;4.376;2023-04-15T02:44:47;27.88;;;12.07;;
39188;SDS011;24915;50.858;4.376;2023-04-15T02:47:12;30.27;;;12.93;;
39188;SDS011;24915;50.858;4.376;2023-04-15T02:49:38;30.13;;;13.38;;
39188;SDS011;24915;50.858;4.376;2023-04-15T02:52:04;28.55;;;12.57;;
39188;SDS011;24915;50.858;4.376;2023-04-15T02:54:31;33.40;;;13.98;;
39188;SDS011;24915;50.858;4.376;2023-04-15T02:56:58;32.70;;;13.27;;
39188;SDS011;24915;50.858;4.376;2023-04-15T02:59:23;33.90;;;13.85;;
39188;SDS011;24915;50.858;4.376;2023-04-15T03:01:49;36.53;;;15.10;;
39188;SDS011;24915;50.858;4.376;2023-04-15T03:04:15;31.67;;;14.02;;
39188;SDS011;24915;50.858;4.376;2023-04-15T03:06:41;34.25;;;14.13;;
39188;SDS011;24915;50.858;4.376;2023-04-15T03:09:07;34.95;;;14.63;;
39188;SDS011;24915;50.858;4.376;2023-04-15T03:11:32;35.60;;;15.77;;
39188;SDS011;24915;50.858;4.376;2023-04-15T03:13:59;43.42;;;16.25;;
39188;SDS011;24915;50.858;4.376;2023-04-15T03:16:25;34.45;;;14.90;;
39188;SDS011;24915;50.858;4.376;2023-04-15T03:18:51;34.08;;;15.30;;
39188;SDS011;24915;50.858;4.376;2023-04-15T03:21:16;32.08;;;15.98;;
39188;SDS011;24915;50.858;4.376;2023-04-15T03:23:43;31.45;;;15.07;;
39188;SDS011;24915;50.858;4.376;2023-04-15T03:26:10;37.50;;;17.27;;
39188;SDS011;24915;50.858;4.376;2023-04-15T03:28:48;34.55;;;16.95;;
39188;SDS011;24915;50.858;4.376;2023-04-15T03:31:14;37.45;;;16.75;;
39188;SDS011;24915;50.858;4.376;2023-04-15T03:33:40;32.95;;;14.00;;
39188;SDS011;24915;50.858;4.376;2023-04-15T03:36:05;26.48;;;13.55;;
39188;SDS011;24915;50.858;4.376;2023-04-15T03:38:31;23.02;;;12.35;;
39188;SDS011;24915;50.858;4.376;2023-04-15T03:40:57;26.70;;;12.75;;
39188;SDS011;24915;50.858;4.376;2023-04-15T03:43:22;26.75;;;11.68;;
39188;SDS011;24915;50.858;4.376;2023-04-15T03:45:48;22.48;;;10.75;;
39188;SDS011;24915;50.858;4.376;2023-04-15T03:48:13;19.83;;;10.35;;
39188;SDS011;24915;50.858;4.376;2023-04-15T03:50:39;22.23;;;10.93;;
39188;SDS011;24915;50.858;4.376;2023-04-15T03:53:05;19.85;;;9.80;;
39188;SDS011;24915;50.858;4.376;2023-04-15T03:55:30;17.23;;;9.30;;
39188;SDS011;24915;50.858;4.376;2023-04-15T03:57:56;15.68;;;9.05;;
39188;SDS011;24915;50.858;4.376;2023-04-15T04:00:21;14.57;;;8.52;;
39188;SDS011;24915;50.858;4.376;2023-04-15T04:02:47;15.38;;;8.55;;
39188;SDS011;24915;50.858;4.376;2023-04-15T04:05:13;16.95;;;8.57;;
39188;SDS011;24915;50.858;4.376;2023-04-15T04:07:38;13.20;;;8.20;;
39188;SDS011;24915;50.858;4.376;2023-04-15T04:10:04;18.83;;;9.27;;
39188;SDS011;24915;50.858;4.376;2023-04-15T04:12:30;14.15;;;8.10;;
39188;SDS011;24915;50.858;4.376;2023-04-15T04:14:56;12.93;;;8.13;;
39188;SDS011;24915;50.858;4.376;2023-04-15T04:17:21;18.38;;;8.18;;
39188;SDS011;24915;50.858;4.376;2023-04-15T04:19:47;17.20;;;8.48;;
39188;SDS011;24915;50.858;4.376;2023-04-15T04:22:13;13.73;;;8.15;;
39188;SDS011;24915;50.858;4.376;2023-04-15T04:24:38;14.88;;;8.63;;
39188;SDS011;24915;50.858;4.376;2023-04-15T04:27:04;16.73;;;8.75;;
39188;SDS011;24915;50.858;4.376;2023-04-15T04:29:30;16.25;;;8.80;;
39188;SDS011;24915;50.858;4.376;2023-04-15T04:31:56;14.15;;;8.38;;
39188;SDS011;24915;50.858;4.376;2023-04-15T04:34:21;12.80;;;7.90;;
39188;SDS011;24915;50.858;4.376;2023-04-15T04:36:47;13.90;;;8.05;;
39188;SDS011;24915;50.858;4.376;2023-04-15T04:39:12;13.45;;;8.25;;
39188;SDS011;24915;50.858;4.376;2023-04-15T04:41:38;17.75;;;8.63;;
39188;SDS011;24915;50.858;4.376;2023-04-15T04:44:03;13.32;;;7.93;;
39188;SDS011;24915;50.858;4.376;2023-04-15T04:46:29;13.40;;;8.52;;
39188;SDS011;24915;50.858;4.376;2023-04-15T04:48:55;18.45;;;8.20;;
39188;SDS011;24915;50.858;4.376;2023-04-15T04:51:20;16.90;;;8.25;;
39188;SDS011;24915;50.858;4.376;2023-04-15T04:53:46;15.77;;;9.43;;
39188;SDS011;24915;50.858;4.376;2023-04-15T04:56:12;14.05;;;8.13;;
39188;SDS011;24915;50.858;4.376;2023-04-15T04:58:38;18.45;;;8.43;;
39188;SDS011;24915;50.858;4.376;2023-04-15T05:01:04;16.42;;;7.82;;
39188;SDS011;24915;50.858;4.376;2023-04-15T05:03:30;13.38;;;8.20;;
39188;SDS011;24915;50.858;4.376;2023-04-15T05:05:55;11.73;;;8.20;;
39188;SDS011;24915;50.858;4.376;2023-04-15T05:08:21;13.88;;;8.38;;
39188;SDS011;24915;50.858;4.376;2023-04-15T05:10:47;15.85;;;8.23;;
39188;SDS011;24915;50.858;4.376;2023-04-15T05:13:12;14.48;;;8.43;;
39188;SDS011;24915;50.858;4.376;2023-04-15T05:15:38;10.32;;;7.78;;
39188;SDS011;24915;50.858;4.376;2023-04-15T05:18:05;20.77;;;8.48;;
39188;SDS011;24915;50.858;4.376;2023-04-15T05:20:31;13.10;;;6.82;;
39188;SDS011;24915;50.858;4.376;2023-04-15T05:22:56;13.23;;;7.90;;
39188;SDS011;24915;50.858;4.376;2023-04-15T05:25:22;17.60;;;7.55;;
39188;SDS011;24915;50.858;4.376;2023-04-15T05:27:48;13.52;;;7.60;;
39188;SDS011;24915;50.858;4.376;2023-04-15T05:30:13;15.25;;;7.90;;
39188;SDS011;24915;50.858;4.376;2023-04-15T05:32:39;16.02;;;7.68;;
39188;SDS011;24915;50.858;4.376;2023-04-15T05:35:05;15.38;;;7.60;;
39188;SDS011;24915;50.858;4.376;2023-04-15T05:37:32;13.60;;;7.78;;
39188;SDS011;24915;50.858;4.376;2023-04-15T05:39:57;14.25;;;7.50;;
39188;SDS011;24915;50.858;4.376;2023-04-15T05:42:23;13.40;;;7.72;;
39188;SDS011;24915;50.858;4.376;2023-04-15T05:44:49;16.20;;;7.80;;
39188;SDS011;24915;50.858;4.376;2023-04-15T05:47:15;14.65;;;8.18;;
39188;SDS011;24915;50.858;4.376;2023-04-15T05:49:40;17.58;;;7.13;;
39188;SDS011;24915;50.858;4.376;2023-04-15T05:52:06;18.38;;;8.35;;
39188;SDS011;24915;50.858;4.376;2023-04-15T05:54:31;14.50;;;7.80;;
39188;SDS011;24915;50.858;4.376;2023-04-15T05:56:57;19.67;;;7.90;;
39188;SDS011;24915;50.858;4.376;2023-04-15T05:59:23;17.40;;;8.00;;
39188;SDS011;24915;50.858;4.376;2023-04-15T06:01:48;14.35;;;8.00;;
39188;SDS011;24915;50.858;4.376;2023-04-15T06:04:16;12.88;;;7.53;;
39188;SDS011;24915;50.858;4.376;2023-04-15T06:06:41;16.25;;;8.23;;
39188;SDS011;24915;50.858;4.376;2023-04-15T06:09:07;14.77;;;8.40;;
39188;SDS011;24915;50.858;4.376;2023-04-15T06:11:33;14.00;;;8.00;;
39188;SDS011;24915;50.858;4.376;2023-04-15T06:13:58;16.40;;;7.75;;
39188;SDS011;24915;50.858;4.376;2023-04-15T06:16:24;20.08;;;8.25;;
39188;SDS011;24915;50.858;4.376;2023-04-15T06:18:50;16.48;;;8.82;;
39188;SDS011;24915;50.858;4.376;2023-04-15T06:21:15;13.50;;;8.05;;
39188;SDS011;24915;50.858;4.376;2023-04-15T06:23:41;12.70;;;7.25;;
39188;SDS011;24915;50.858;4.376;2023-04-15T06:26:07;14.32;;;8.60;;
39188;SDS011;24915;50.858;4.376;2023-04-15T06:28:33;16.25;;;7.65;;
39188;SDS011;24915;50.858;4.376;2023-04-15T06:30:58;11.00;;;7.78;;
39188;SDS011;24915;50.858;4.376;2023-04-15T06:33:25;15.05;;;8.02;;
39188;SDS011;24915;50.858;4.376;2023-04-15T06:35:51;15.20;;;7.80;;
39188;SDS011;24915;50.858;4.376;2023-04-15T06:38:17;15.57;;;7.43;;
39188;SDS011;24915;50.858;4.376;2023-04-15T06:40:43;13.85;;;7.57;;
39188;SDS011;24915;50.858;4.376;2023-04-15T06:43:08;14.27;;;7.22;;
39188;SDS011;24915;50.858;4.376;2023-04-15T06:45:34;17.77;;;7.28;;
39188;SDS011;24915;50.858;4.376;2023-04-15T06:48:00;10.73;;;6.53;;
39188;SDS011;24915;50.858;4.376;2023-04-15T06:50:25;13.40;;;6.97;;
39188;SDS011;24915;50.858;4.376;2023-04-15T06:52:52;17.33;;;7.13;;
39188;SDS011;24915;50.858;4.376;2023-04-15T06:55:18;12.90;;;7.35;;
39188;SDS011;24915;50.858;4.376;2023-04-15T06:57:44;16.17;;;6.97;;
39188;SDS011;24915;50.858;4.376;2023-04-15T07:00:10;16.73;;;7.10;;
39188;SDS011;24915;50.858;4.376;2023-04-15T07:02:36;13.68;;;6.60;;
39188;SDS011;24915;50.858;4.376;2023-04-15T07:05:02;14.95;;;7.38;;
39188;SDS011;24915;50.858;4.376;2023-04-15T07:07:28;14.57;;;6.22;;
39188;SDS011;24915;50.858;4.376;2023-04-15T07:09:54;12.75;;;7.55;;
39188;SDS011;24915;50.858;4.376;2023-04-15T07:12:20;13.60;;;7.70;;
39188;SDS011;24915;50.858;4.376;2023-04-15T07:14:46;13.43;;;7.45;;
39188;SDS011;24915;50.858;4.376;2023-04-15T07:17:11;14.90;;;8.07;;
39188;SDS011;24915;50.858;4.376;2023-04-15T07:19:37;18.30;;;8.27;;
39188;SDS011;24915;50.858;4.376;2023-04-15T07:22:03;18.02;;;8.00;;
39188;SDS011;24915;50.858;4.376;2023-04-15T07:24:29;15.55;;;7.90;;
39188;SDS011;24915;50.858;4.376;2023-04-15T07:26:55;18.50;;;8.25;;
39188;SDS011;24915;50.858;4.376;2023-04-15T07:29:22;14.48;;;7.13;;
39188;SDS011;24915;50.858;4.376;2023-04-15T07:31:48;19.50;;;8.00;;
39188;SDS011;24915;50.858;4.376;2023-04-15T07:34:14;23.05;;;8.68;;
39188;SDS011;24915;50.858;4.376;2023-04-15T07:36:40;15.95;;;8.20;;
39188;SDS011;24915;50.858;4.376;2023-04-15T07:39:06;13.23;;;7.90;;
39188;SDS011;24915;50.858;4.376;2023-04-15T07:41:32;16.80;;;8.40;;
39188;SDS011;24915;50.858;4.376;2023-04-15T07:43:58;16.10;;;8.80;;
39188;SDS011;24915;50.858;4.376;2023-04-15T07:46:23;16.75;;;8.20;;
39188;SDS011;24915;50.858;4.376;2023-04-15T07:48:51;18.58;;;8.75;;
39188;SDS011;24915;50.858;4.376;2023-04-15T07:51:17;14.00;;;8.43;;
39188;SDS011;24915;50.858;4.376;2023-04-15T07:53:45;14.15;;;8.77;;
39188;SDS011;24915;50.858;4.376;2023-04-15T07:56:11;20.05;;;8.60;;
39188;SDS011;24915;50.858;4.376;2023-04-15T07:58:37;16.38;;;8.70;;
39188;SDS011;24915;50.858;4.376;2023-04-15T08:01:03;13.27;;;8.57;;
39188;SDS011;24915;50.858;4.376;2023-04-15T08:03:29;21.45;;;8.95;;
39188;SDS011;24915;50.858;4.376;2023-04-15T08:05:55;14.45;;;9.40;;
39188;SDS011;24915;50.858;4.376;2023-04-15T08:08:21;15.27;;;9.27;;
39188;SDS011;24915;50.858;4.376;2023-04-15T08:10:47;17.90;;;10.65;;
39188;SDS011;24915;50.858;4.376;2023-04-15T08:13:13;19.65;;;10.80;;
39188;SDS011;24915;50.858;4.376;2023-04-15T08:15:40;18.75;;;10.52;;
39188;SDS011;24915;50.858;4.376;2023-04-15T08:18:06;18.50;;;10.55;;
39188;SDS011;24915;50.858;4.376;2023-04-15T08:20:32;22.67;;;10.65;;
39188;SDS011;24915;50.858;4.376;2023-04-15T08:22:57;20.50;;;10.00;;
39188;SDS011;24915;50.858;4.376;2023-04-15T08:25:23;23.60;;;10.00;;
39188;SDS011;24915;50.858;4.376;2023-04-15T08:27:49;26.08;;;10.57;;
39188;SDS011;24915;50.858;4.376;2023-04-15T08:30:15;16.02;;;10.45;;
39188;SDS011;24915;50.858;4.376;2023-04-15T08:32:46;18.33;;;11.77;;
39188;SDS011;24915;50.858;4.376;2023-04-15T08:35:13;26.38;;;10.98;;
39188;SDS011;24915;50.858;4.376;2023-04-15T08:37:39;18.02;;;11.20;;
39188;SDS011;24915;50.858;4.376;2023-04-15T08:40:05;19.45;;;11.18;;
39188;SDS011;24915;50.858;4.376;2023-04-15T08:42:36;28.15;;;13.70;;
39188;SDS011;24915;50.858;4.376;2023-04-15T08:45:05;25.80;;;12.32;;
39188;SDS011;24915;50.858;4.376;2023-04-15T08:47:35;28.80;;;11.73;;
39188;SDS011;24915;50.858;4.376;2023-04-15T08:50:03;20.33;;;11.52;;
39188;SDS011;24915;50.858;4.376;2023-04-15T08:52:33;20.13;;;12.00;;
39188;SDS011;24915;50.858;4.376;2023-04-15T08:54:59;18.08;;;10.60;;
39188;SDS011;24915;50.858;4.376;2023-04-15T08:57:26;19.65;;;10.55;;
39188;SDS011;24915;50.858;4.376;2023-04-15T08:59:55;18.90;;;11.00;;
39188;SDS011;24915;50.858;4.376;2023-04-15T09:02:22;19.50;;;10.52;;
39188;SDS011;24915;50.858;4.376;2023-04-15T09:04:49;15.90;;;10.70;;
39188;SDS011;24915;50.858;4.376;2023-04-15T09:07:14;18.98;;;10.82;;
39188;SDS011;24915;50.858;4.376;2023-04-15T09:09:40;16.80;;;9.90;;
39188;SDS011;24915;50.858;4.376;2023-04-15T09:12:06;21.35;;;10.02;;
39188;SDS011;24915;50.858;4.376;2023-04-15T09:14:33;16.02;;;9.75;;
39188;SDS011;24915;50.858;4.376;2023-04-15T09:16:59;20.02;;;10.05;;
39188;SDS011;24915;50.858;4.376;2023-04-15T09:19:28;18.33;;;10.45;;
39188;SDS011;24915;50.858;4.376;2023-04-15T09:21:56;18.00;;;9.35;;
39188;SDS011;24915;50.858;4.376;2023-04-15T09:24:22;21.85;;;8.95;;
39188;SDS011;24915;50.858;4.376;2023-04-15T09:26:53;20.50;;;8.48;;
39188;SDS011;24915;50.858;4.376;2023-04-15T09:29:23;13.60;;;6.88;;
39188;SDS011;24915;50.858;4.376;2023-04-15T09:31:50;11.05;;;6.03;;
39188;SDS011;24915;50.858;4.376;2023-04-15T09:34:16;8.52;;;6.18;;
39188;SDS011;24915;50.858;4.376;2023-04-15T09:39:11;7.72;;;4.97;;
39188;SDS011;24915;50.858;4.376;2023-04-15T09:41:37;9.40;;;6.03;;
39188;SDS011;24915;50.858;4.376;2023-04-15T09:44:04;11.48;;;6.05;;
39188;SDS011;24915;50.858;4.376;2023-04-15T09:46:42;10.02;;;6.22;;
39188;SDS011;24915;50.858;4.376;2023-04-15T09:49:09;9.63;;;5.30;;
39188;SDS011;24915;50.858;4.376;2023-04-15T09:51:36;7.18;;;5.32;;
39188;SDS011;24915;50.858;4.376;2023-04-15T09:54:02;13.32;;;5.32;;
39188;SDS011;24915;50.858;4.376;2023-04-15T09:56:35;11.75;;;5.90;;
39188;SDS011;24915;50.858;4.376;2023-04-15T09:59:05;9.02;;;5.80;;
39188;SDS011;24915;50.858;4.376;2023-04-15T10:01:32;6.68;;;5.45;;
39188;SDS011;24915;50.858;4.376;2023-04-15T10:03:57;7.82;;;5.65;;
39188;SDS011;24915;50.858;4.376;2023-04-15T10:06:25;8.15;;;6.05;;
39188;SDS011;24915;50.858;4.376;2023-04-15T10:08:51;6.78;;;5.65;;
39188;SDS011;24915;50.858;4.376;2023-04-15T10:11:18;9.65;;;6.10;;
39188;SDS011;24915;50.858;4.376;2023-04-15T10:13:45;12.70;;;6.13;;
39188;SDS011;24915;50.858;4.376;2023-04-15T10:16:13;9.07;;;6.10;;
39188;SDS011;24915;50.858;4.376;2023-04-15T10:18:44;12.45;;;5.88;;
39188;SDS011;24915;50.858;4.376;2023-04-15T10:21:11;17.60;;;5.93;;
39188;SDS011;24915;50.858;4.376;2023-04-15T10:23:42;16.30;;;6.63;;
39188;SDS011;24915;50.858;4.376;2023-04-15T10:26:09;9.38;;;7.00;;
39188;SDS011;24915;50.858;4.376;2023-04-15T10:28:38;11.05;;;6.43;;
39188;SDS011;24915;50.858;4.376;2023-04-15T10:31:04;15.68;;;6.20;;
39188;SDS011;24915;50.858;4.376;2023-04-15T10:33:31;53.50;;;9.77;;
39188;SDS011;24915;50.858;4.376;2023-04-15T10:35:58;13.70;;;7.13;;
39188;SDS011;24915;50.858;4.376;2023-04-15T10:38:35;7.35;;;4.93;;
39188;SDS011;24915;50.858;4.376;2023-04-15T10:41:43;9.43;;;4.53;;
39188;SDS011;24915;50.858;4.376;2023-04-15T10:46:34;9.30;;;3.95;;
39188;SDS011;24915;50.858;4.376;2023-04-15T10:49:05;11.57;;;4.05;;
39188;SDS011;24915;50.858;4.376;2023-04-15T10:51:42;7.40;;;3.55;;
39188;SDS011;24915;50.858;4.376;2023-04-15T10:57:36;7.55;;;3.72;;
39188;SDS011;24915;50.858;4.376;2023-04-15T11:02:45;4.85;;;3.00;;
39188;SDS011;24915;50.858;4.376;2023-04-15T11:05:22;4.10;;;2.72;;
39188;SDS011;24915;50.858;4.376;2023-04-15T11:08:03;9.10;;;3.05;;
39188;SDS011;24915;50.858;4.376;2023-04-15T11:12:58;3.28;;;2.97;;
39188;SDS011;24915;50.858;4.376;2023-04-15T11:18:23;4.28;;;3.22;;
39188;SDS011;24915;50.858;4.376;2023-04-15T11:23:19;4.43;;;3.50;;
39188;SDS011;24915;50.858;4.376;2023-04-15T11:25:55;5.55;;;3.67;;
39188;SDS011;24915;50.858;4.376;2023-04-15T11:28:24;5.80;;;4.60;;
39188;SDS011;24915;50.858;4.376;2023-04-15T11:30:54;4.18;;;3.45;;
39188;SDS011;24915;50.858;4.376;2023-04-15T11:33:20;8.13;;;3.33;;
39188;SDS011;24915;50.858;4.376;2023-04-15T11:35:47;3.80;;;3.35;;
39188;SDS011;24915;50.858;4.376;2023-04-15T11:38:16;5.28;;;3.30;;
39188;SDS011;24915;50.858;4.376;2023-04-15T11:40:42;3.47;;;2.75;;
39188;SDS011;24915;50.858;4.376;2023-04-15T11:45:34;3.92;;;2.42;;
39188;SDS011;24915;50.858;4.376;2023-04-15T11:48:07;3.33;;;2.30;;
39188;SDS011;24915;50.858;4.376;2023-04-15T11:50:34;3.33;;;2.05;;
39188;SDS011;24915;50.858;4.376;2023-04-15T11:53:02;2.95;;;2.15;;
39188;SDS011;24915;50.858;4.376;2023-04-15T11:55:29;4.45;;;2.60;;
39188;SDS011;24915;50.858;4.376;2023-04-15T12:00:32;3.72;;;3.10;;
39188;SDS011;24915;50.858;4.376;2023-04-15T12:03:13;7.85;;;4.32;;
39188;SDS011;24915;50.858;4.376;2023-04-15T12:14:38;3.83;;;2.50;;
39188;SDS011;24915;50.858;4.376;2023-04-15T12:16:47;2.65;;;2.45;;
39188;SDS011;24915;50.858;4.376;2023-04-15T12:19:35;2.90;;;2.60;;
39188;SDS011;24915;50.858;4.376;2023-04-15T12:22:08;4.43;;;2.60;;
39188;SDS011;24915;50.858;4.376;2023-04-15T12:24:35;4.97;;;2.75;;
39188;SDS011;24915;50.858;4.376;2023-04-15T12:27:03;3.50;;;3.28;;
39188;SDS011;24915;50.858;4.376;2023-04-15T12:29:33;5.45;;;2.90;;
39188;SDS011;24915;50.858;4.376;2023-04-15T12:32:09;3.50;;;3.00;;
39188;SDS011;24915;50.858;4.376;2023-04-15T12:35:09;3.72;;;3.08;;
39188;SDS011;24915;50.858;4.376;2023-04-15T12:37:29;3.40;;;2.47;;
39188;SDS011;24915;50.858;4.376;2023-04-15T12:39:55;2.35;;;1.92;;
39188;SDS011;24915;50.858;4.376;2023-04-15T12:42:20;1.90;;;1.80;;
39188;SDS011;24915;50.858;4.376;2023-04-15T12:44:46;2.50;;;2.30;;
39188;SDS011;24915;50.858;4.376;2023-04-15T12:47:12;2.67;;;2.40;;
39188;SDS011;24915;50.858;4.376;2023-04-15T12:49:38;6.40;;;2.40;;
39188;SDS011;24915;50.858;4.376;2023-04-15T12:52:04;2.13;;;1.92;;
39188;SDS011;24915;50.858;4.376;2023-04-15T12:54:29;5.15;;;2.00;;
39188;SDS011;24915;50.858;4.376;2023-04-15T12:56:56;2.78;;;1.95;;
39188;SDS011;24915;50.858;4.376;2023-04-15T12:59:23;5.95;;;2.35;;
39188;SDS011;24915;50.858;4.376;2023-04-15T13:01:49;12.88;;;2.50;;
39188;SDS011;24915;50.858;4.376;2023-04-15T13:04:16;3.28;;;2.00;;
39188;SDS011;24915;50.858;4.376;2023-04-15T13:06:42;6.78;;;2.33;;
39188;SDS011;24915;50.858;4.376;2023-04-15T13:09:08;7.22;;;2.45;;
39188;SDS011;24915;50.858;4.376;2023-04-15T13:11:33;5.50;;;1.98;;
39188;SDS011;24915;50.858;4.376;2023-04-15T13:14:00;3.20;;;2.20;;
39188;SDS011;24915;50.858;4.376;2023-04-15T13:16:30;2.92;;;1.95;;
39188;SDS011;24915;50.858;4.376;2023-04-15T13:18:56;4.07;;;2.70;;
39188;SDS011;24915;50.858;4.376;2023-04-15T13:21:26;5.30;;;2.72;;
39188;SDS011;24915;50.858;4.376;2023-04-15T13:23:52;13.68;;;4.22;;
39188;SDS011;24915;50.858;4.376;2023-04-15T13:26:18;5.88;;;3.08;;
39188;SDS011;24915;50.858;4.376;2023-04-15T13:28:44;3.10;;;2.50;;
39188;SDS011;24915;50.858;4.376;2023-04-15T13:31:10;3.33;;;2.83;;
39188;SDS011;24915;50.858;4.376;2023-04-15T13:33:35;10.48;;;3.10;;
39188;SDS011;24915;50.858;4.376;2023-04-15T13:36:01;3.13;;;2.15;;
39188;SDS011;24915;50.858;4.376;2023-04-15T13:38:27;6.22;;;2.20;;
39188;SDS011;24915;50.858;4.376;2023-04-15T13:40:52;2.95;;;2.17;;
39188;SDS011;24915;50.858;4.376;2023-04-15T13:43:18;4.25;;;2.00;;
39188;SDS011;24915;50.858;4.376;2023-04-15T13:45:45;6.38;;;2.28;;
39188;SDS011;24915;50.858;4.376;2023-04-15T13:48:11;3.42;;;2.10;;
39188;SDS011;24915;50.858;4.376;2023-04-15T13:50:37;6.35;;;2.10;;
39188;SDS011;24915;50.858;4.376;2023-04-15T13:53:02;5.10;;;2.40;;
39188;SDS011;24915;50.858;4.376;2023-04-15T13:55:28;5.63;;;2.47;;
39188;SDS011;24915;50.858;4.376;2023-04-15T13:57:53;7.68;;;2.30;;
39188;SDS011;24915;50.858;4.376;2023-04-15T14:00:20;4.03;;;2.30;;
39188;SDS011;24915;50.858;4.376;2023-04-15T14:02:46;5.47;;;2.28;;
39188;SDS011;24915;50.858;4.376;2023-04-15T14:05:12;5.20;;;2.38;;
39188;SDS011;24915;50.858;4.376;2023-04-15T14:07:37;5.57;;;2.05;;
39188;SDS011;24915;50.858;4.376;2023-04-15T14:10:03;4.75;;;2.53;;
39188;SDS011;24915;50.858;4.376;2023-04-15T14:12:29;4.00;;;2.58;;
39188;SDS011;24915;50.858;4.376;2023-04-15T14:14:55;4.57;;;2.25;;
39188;SDS011;24915;50.858;4.376;2023-04-15T14:17:20;5.70;;;2.60;;
39188;SDS011;24915;50.858;4.376;2023-04-15T14:19:46;10.38;;;2.35;;
39188;SDS011;24915;50.858;4.376;2023-04-15T14:22:12;4.20;;;2.38;;
39188;SDS011;24915;50.858;4.376;2023-04-15T14:24:37;3.47;;;2.30;;
39188;SDS011;24915;50.858;4.376;2023-04-15T14:27:03;4.35;;;2.13;;
39188;SDS011;24915;50.858;4.376;2023-04-15T14:29:29;2.55;;;1.95;;
39188;SDS011;24915;50.858;4.376;2023-04-15T14:31:55;3.25;;;1.50;;
39188;SDS011;24915;50.858;4.376;2023-04-15T14:34:22;2.92;;;1.73;;
39188;SDS011;24915;50.858;4.376;2023-04-15T14:36:49;5.13;;;1.67;;
39188;SDS011;24915;50.858;4.376;2023-04-15T14:39:17;4.45;;;1.35;;
39188;SDS011;24915;50.858;4.376;2023-04-15T14:41:43;3.90;;;0.98;;
39188;SDS011;24915;50.858;4.376;2023-04-15T14:44:09;4.28;;;1.40;;
39188;SDS011;24915;50.858;4.376;2023-04-15T14:46:36;6.65;;;1.40;;
39188;SDS011;24915;50.858;4.376;2023-04-15T14:49:02;2.88;;;1.65;;
39188;SDS011;24915;50.858;4.376;2023-04-15T14:51:28;4.85;;;1.58;;
39188;SDS011;24915;50.858;4.376;2023-04-15T14:53:55;4.10;;;1.77;;
39188;SDS011;24915;50.858;4.376;2023-04-15T14:56:20;4.43;;;1.67;;
39188;SDS011;24915;50.858;4.376;2023-04-15T14:58:46;5.00;;;1.80;;
39188;SDS011;24915;50.858;4.376;2023-04-15T15:01:12;4.05;;;1.80;;
39188;SDS011;24915;50.858;4.376;2023-04-15T15:03:37;5.45;;;1.80;;
39188;SDS011;24915;50.858;4.376;2023-04-15T15:06:03;7.80;;;2.13;;
39188;SDS011;24915;50.858;4.376;2023-04-15T15:08:29;5.80;;;2.20;;